Flight Track Log - Related Links

Times and Time Zones

All times are in EDT time to prevent confusion due to time zone crossing. See the ASQ4209 flight status page for this flight to view local times or setup timezone preferences in your user account.

Time Position Orientation Groundspeed Altitude Reporting Facility
EDT Latitude Longitude Course Direction KTS MPH feet Rate Location/Type
Thu 07:45:12 PM 30.5731 -96.3583 145° Southeast 153 176 1,000  Level Houston Center
Thu 07:46:19 PM 30.5281 -96.3219 145° Southeast 226 260 3,800 2,400 Climbing Houston Center
Thu 07:47:07 PM 30.5167 -96.2550 101° East 268 308 5,600 1,691 Climbing Houston Center
Thu 07:48:09 PM 30.5022 -96.1639 100° East 286 329 6,900 677 Climbing Houston Center
Thu 07:49:11 PM 30.4872 -96.0703 101° East 292 336 7,000 93 Climbing Houston Center
Thu 07:50:18 PM 30.4681 -95.9606 101° East 290 334 7,100 48 Climbing Houston Center
Thu 07:51:15 PM 30.4419 -95.8853 112° Southeast 290 334 7,100 -50 Level Houston Center
Thu 07:52:17 PM 30.3711 -95.9044 193° South 267 307 7,000 -48 Descending Houston Center
Thu 07:53:19 PM 30.3025 -95.9336 200° South 265 305 7,000  Level Houston Center
Thu 07:54:21 PM 30.2217 -95.9361 182° South 269 310 7,000 -366 Level Houston Center
Thu 07:55:30 PM 30.1531 -95.8639 138° Southeast 284 327 6,200 -912 Descending Houston Center
Thu 07:56:26 PM 30.1036 -95.8078 136° Southeast 280 322 5,100 -864 Descending Houston Center
Thu 07:57:28 PM 30.0581 -95.7567 136° Southeast 234 269 4,500 -541 Descending Houston Center
Thu 07:58:28 PM 30.0136 -95.7089 137° Southeast 194 223 4,000 -532 Descending Houston Center
Thu 07:59:32 PM 29.9997 -95.6564 107° East 197 227 3,400 -476 Descending Houston Center
Thu 08:00:34 PM 29.9925 -95.5936 98° East 201 231 3,000 -339 Descending Houston Center
Thu 08:01:36 PM 29.9931 -95.5150 90° East 202 232 2,700 -629 Descending Houston Center
Thu 08:02:38 PM 29.9942 -95.4522 89° East 201 231 1,700 -864 Descending Houston Center
Thu 08:03:34 PM 29.9931 -95.4122 92° East 135 155 1,000 -528 Descending Houston Center
Thu 08:04:43 PM 29.9956 -95.3608 87° East 146 168 600 -348 Descending Houston Center

Login

Don't have an account? Register now (free) for customized features, flight alerts, and more!